createdAt,value
2022-11-01T00:02:26.841Z,100.00
2022-11-01T00:04:53.588Z,100.00
2022-11-01T00:07:20.333Z,100.00
2022-11-01T00:09:47.028Z,100.00
2022-11-01T00:12:16.786Z,100.00
2022-11-01T00:14:43.463Z,100.00
2022-11-01T00:17:10.435Z,100.00
2022-11-01T00:19:37.202Z,100.00
2022-11-01T00:22:04.100Z,100.00
2022-11-01T00:24:31.593Z,100.00
2022-11-01T00:26:59.775Z,100.00
2022-11-01T00:29:26.845Z,100.00
2022-11-01T00:31:56.591Z,100.00
2022-11-01T00:34:23.695Z,100.00
2022-11-01T00:36:50.471Z,100.00
2022-11-01T00:39:17.237Z,100.00
2022-11-01T00:41:43.989Z,100.00
2022-11-01T00:44:10.817Z,100.00
2022-11-01T00:46:37.485Z,100.00
2022-11-01T00:49:04.248Z,100.00
2022-11-01T00:51:33.498Z,100.00
2022-11-01T00:54:00.188Z,100.00
2022-11-01T00:56:27.001Z,100.00
2022-11-01T00:58:53.844Z,100.00
2022-11-01T01:01:20.626Z,100.00
2022-11-01T01:03:50.140Z,100.00
2022-11-01T01:06:16.837Z,100.00
2022-11-01T01:08:43.627Z,100.00
2022-11-01T01:11:10.361Z,100.00
2022-11-01T01:13:39.543Z,100.00
2022-11-01T01:16:12.864Z,100.00
2022-11-01T01:18:40.229Z,100.00
2022-11-01T01:21:07.454Z,100.00
2022-11-01T01:23:35.450Z,100.00
2022-11-01T01:26:11.135Z,100.00
2022-11-01T01:28:43.500Z,100.00
2022-11-01T01:31:16.503Z,100.00
2022-11-01T01:33:43.355Z,100.00
2022-11-01T01:36:11.029Z,100.00
2022-11-01T01:38:37.985Z,100.00
2022-11-01T01:41:24.551Z,100.00
2022-11-01T01:43:53.523Z,100.00
2022-11-01T01:46:20.642Z,100.00
2022-11-01T01:48:58.542Z,100.00
2022-11-01T01:51:29.421Z,100.00
2022-11-01T01:53:58.829Z,100.00
2022-11-01T01:56:44.116Z,100.00
2022-11-01T01:59:11.266Z,100.00
2022-11-01T02:01:41.449Z,100.00
2022-11-01T02:04:31.669Z,100.00
2022-11-01T02:07:01.029Z,100.00
2022-11-01T02:09:29.499Z,100.00
2022-11-01T02:11:58.647Z,100.00
2022-11-01T02:14:26.930Z,100.00
2022-11-01T02:17:15.119Z,100.00
2022-11-01T02:20:43.328Z,100.00
2022-11-01T02:23:40.684Z,100.00
2022-11-01T02:26:36.927Z,100.00
2022-11-01T02:29:43.337Z,100.00
2022-11-01T02:32:39.385Z,100.00
2022-11-01T02:36:01.652Z,100.00
2022-11-01T02:38:51.379Z,100.00
2022-11-01T02:41:34.775Z,100.00
2022-11-01T02:44:19.255Z,100.00
2022-11-01T02:47:03.534Z,100.00
2022-11-01T02:49:37.912Z,100.00
2022-11-01T02:52:11.240Z,100.00
2022-11-01T02:54:52.616Z,100.00
2022-11-01T02:57:38.485Z,100.00
2022-11-01T03:00:37.862Z,100.00
2022-11-01T03:03:22.586Z,100.00
2022-11-01T03:06:00.895Z,100.00
2022-11-01T03:08:46.832Z,100.00
2022-11-01T03:11:26.142Z,100.00
2022-11-01T03:14:35.884Z,100.00
2022-11-01T03:17:23.140Z,100.00
2022-11-01T03:20:04.688Z,100.00
2022-11-01T03:22:46.711Z,100.00
2022-11-01T03:25:41.725Z,100.00
2022-11-01T03:28:39.197Z,100.00
2022-11-01T03:31:24.574Z,100.00
2022-11-01T03:34:03.009Z,100.00
2022-11-01T03:36:40.138Z,100.00
2022-11-01T03:39:25.091Z,100.00
2022-11-01T03:42:05.839Z,100.00
2022-11-01T03:44:42.948Z,100.00
2022-11-01T03:47:11.705Z,100.00
2022-11-01T03:49:38.426Z,100.00
2022-11-01T03:52:05.559Z,100.00
2022-11-01T03:54:35.076Z,100.00
2022-11-01T03:57:02.127Z,100.00
2022-11-01T03:59:29.180Z,100.00
2022-11-01T04:01:56.329Z,100.00
2022-11-01T04:04:23.318Z,100.00
2022-11-01T04:06:51.544Z,100.00
2022-11-01T04:09:18.204Z,100.00
2022-11-01T04:11:44.927Z,100.00
2022-11-01T04:14:30.380Z,100.00
2022-11-01T04:17:15.819Z,100.00
2022-11-01T04:20:01.272Z,100.00
2022-11-01T04:22:28.052Z,100.00
2022-11-01T04:24:54.704Z,100.00
2022-11-01T04:27:21.865Z,100.00
2022-11-01T04:29:48.672Z,100.00
2022-11-01T04:32:15.436Z,100.00
2022-11-01T04:34:42.225Z,100.00
2022-11-01T04:37:10.584Z,100.00
2022-11-01T04:39:37.850Z,100.00
2022-11-01T04:42:05.466Z,100.00
2022-11-01T04:44:35.027Z,100.00
2022-11-01T04:47:02.687Z,100.00
2022-11-01T04:49:31.824Z,100.00
2022-11-01T04:51:58.668Z,100.00
2022-11-01T04:54:33.053Z,100.00
2022-11-01T04:57:00.666Z,100.00
2022-11-01T04:59:27.391Z,100.00
2022-11-01T05:01:54.285Z,100.00
2022-11-01T05:04:21.006Z,100.00
2022-11-01T05:06:47.737Z,100.00
2022-11-01T05:09:14.561Z,100.00
2022-11-01T05:11:41.593Z,100.00
2022-11-01T05:14:08.912Z,100.00
2022-11-01T05:16:35.831Z,100.00
2022-11-01T05:19:05.030Z,100.00
2022-11-01T05:21:32.218Z,100.00
2022-11-01T05:23:58.960Z,100.00
2022-11-01T05:26:27.727Z,100.00
2022-11-01T05:28:54.514Z,100.00
2022-11-01T05:31:24.300Z,100.00
2022-11-01T05:33:51.015Z,100.00
2022-11-01T05:36:17.730Z,100.00
2022-11-01T05:57:33.547Z,100.00
2022-11-01T06:10:48.572Z,100.00
2022-11-01T06:13:19.394Z,100.00
2022-11-01T06:45:17.681Z,100.00
2022-11-01T07:25:36.392Z,100.00
2022-11-01T08:24:44.731Z,100.00
2022-11-01T08:27:11.467Z,100.00
2022-11-01T08:37:56.904Z,100.00
2022-11-01T08:40:23.732Z,100.00
2022-11-01T08:59:05.586Z,100.00
2022-11-01T09:01:35.716Z,100.00
2022-11-01T09:14:53.993Z,100.00
2022-11-01T09:38:49.431Z,100.00
2022-11-01T09:41:38.851Z,100.00
2022-11-01T09:53:16.896Z,100.00
2022-11-01T09:55:55.273Z,100.00
2022-11-01T09:59:05.698Z,100.00
2022-11-01T10:02:34.666Z,100.00
2022-11-01T10:05:52.390Z,100.00
2022-11-01T10:09:01.676Z,100.00
2022-11-01T10:12:16.278Z,100.00
2022-11-01T10:15:16.882Z,100.00
2022-11-01T10:17:54.647Z,100.00
2022-11-01T10:20:38.976Z,100.00
2022-11-01T10:23:06.553Z,100.00
2022-11-01T10:25:39.609Z,100.00
2022-11-01T10:28:51.782Z,100.00
2022-11-01T10:31:26.224Z,100.00
2022-11-01T10:34:15.007Z,100.00
2022-11-01T10:36:45.026Z,100.00
2022-11-01T10:39:53.976Z,100.00
2022-11-01T10:42:21.099Z,100.00
2022-11-01T10:45:00.817Z,100.00
2022-11-01T10:47:31.700Z,100.00
2022-11-01T10:50:23.686Z,100.00
2022-11-01T10:53:01.405Z,100.00
2022-11-01T10:55:47.022Z,100.00
2022-11-01T10:58:42.638Z,100.00
2022-11-01T11:01:19.872Z,100.00
2022-11-01T11:03:50.163Z,100.00
2022-11-01T11:06:17.392Z,100.00
2022-11-01T11:08:51.164Z,100.00
2022-11-01T11:11:42.483Z,100.00
2022-11-01T11:14:14.397Z,100.00
2022-11-01T11:16:52.866Z,100.00
2022-11-01T11:53:22.176Z,86.62
2022-11-01T11:56:06.754Z,87.10
2022-11-01T11:58:50.284Z,90.69
2022-11-01T12:01:26.743Z,93.63
2022-11-01T12:04:13.912Z,97.85
2022-11-01T12:06:46.460Z,99.24
2022-11-01T12:09:48.084Z,99.10
2022-11-01T12:12:40.668Z,100.00
2022-11-01T12:15:41.407Z,100.00
2022-11-01T12:18:26.204Z,100.00
2022-11-01T12:20:53.206Z,100.00
2022-11-01T12:23:40.501Z,100.00
2022-11-01T12:26:16.808Z,100.00
2022-11-01T12:28:58.629Z,100.00
2022-11-01T12:31:31.192Z,100.00
2022-11-01T12:34:24.449Z,96.62
2022-11-01T12:37:04.185Z,93.98
2022-11-01T12:39:55.633Z,96.92
2022-11-01T12:42:40.438Z,90.67
2022-11-01T12:45:34.354Z,92.04
2022-11-01T12:48:15.595Z,93.48
2022-11-01T12:50:54.062Z,95.93
2022-11-01T12:53:41.593Z,97.87
2022-11-01T12:56:08.463Z,97.78
2022-11-01T12:58:36.395Z,96.82
2022-11-01T13:01:55.333Z,90.32
2022-11-01T13:04:34.144Z,88.51
2022-11-01T13:07:45.018Z,91.18
2022-11-01T13:10:38.268Z,89.59
2022-11-01T13:13:25.136Z,87.75
2022-11-01T13:16:25.738Z,86.13
2022-11-01T13:18:58.805Z,86.07
2022-11-01T13:22:02.698Z,85.13
2022-11-01T13:24:56.674Z,85.31
2022-11-01T13:27:33.460Z,87.26
2022-11-01T13:30:13.714Z,88.95
2022-11-01T13:33:11.273Z,85.37
2022-11-01T13:36:11.282Z,84.19
2022-11-01T13:39:06.509Z,86.02
2022-11-01T13:42:06.363Z,86.49
2022-11-01T13:57:27.279Z,86.45
2022-11-01T14:00:06.851Z,85.97
2022-11-01T14:42:23.160Z,95.23
2022-11-01T14:53:39.208Z,99.20
2022-11-01T14:56:22.195Z,100.00
2022-11-01T15:16:02.821Z,100.00
2022-11-01T15:29:36.370Z,100.00
2022-11-01T16:27:06.242Z,100.00
2022-11-01T16:29:48.416Z,100.00
2022-11-01T16:32:34.205Z,100.00
2022-11-01T17:01:34.181Z,100.00
2022-11-01T17:36:53.726Z,100.00
2022-11-01T17:39:24.368Z,100.00
2022-11-01T17:41:54.842Z,100.00
2022-11-01T17:44:21.785Z,100.00
2022-11-01T17:46:48.732Z,100.00
2022-11-01T17:49:16.917Z,100.00
2022-11-01T17:51:44.325Z,100.00
2022-11-01T17:54:11.080Z,100.00
2022-11-01T17:56:37.968Z,100.00
2022-11-01T17:59:04.886Z,100.00
2022-11-01T18:01:32.800Z,100.00
2022-11-01T18:03:59.465Z,100.00
2022-11-01T18:06:26.514Z,100.00
2022-11-01T18:08:53.993Z,100.00
2022-11-01T18:11:51.587Z,100.00
2022-11-01T18:24:52.264Z,100.00
2022-11-01T19:28:33.167Z,100.00
2022-11-01T19:42:33.895Z,100.00
2022-11-01T19:56:29.748Z,100.00
2022-11-01T19:59:00.542Z,100.00
2022-11-01T20:34:27.522Z,100.00
2022-11-01T20:37:22.801Z,100.00
2022-11-01T20:55:49.468Z,100.00
2022-11-01T21:20:00.208Z,100.00
2022-11-01T21:22:29.018Z,100.00
2022-11-01T21:24:58.235Z,100.00
2022-11-01T21:27:34.237Z,100.00
2022-11-01T21:30:21.939Z,100.00
2022-11-01T21:32:48.655Z,100.00
2022-11-01T21:35:38.163Z,100.00
2022-11-01T21:38:35.785Z,100.00
2022-11-01T21:41:26.344Z,100.00
2022-11-01T21:43:53.138Z,100.00
2022-11-01T21:46:31.339Z,100.00
2022-11-01T21:48:59.787Z,100.00
2022-11-01T21:51:26.616Z,100.00
2022-11-01T21:53:53.299Z,100.00
2022-11-01T21:56:19.957Z,100.00
2022-11-01T21:58:46.572Z,100.00
2022-11-01T22:01:16.397Z,100.00
2022-11-01T22:03:42.994Z,100.00
2022-11-01T22:06:09.604Z,100.00
2022-11-01T22:08:36.185Z,100.00
2022-11-01T22:11:02.999Z,100.00
2022-11-01T22:13:29.628Z,100.00
2022-11-01T22:15:56.248Z,100.00
2022-11-01T22:18:25.328Z,100.00
2022-11-01T22:20:52.162Z,100.00
2022-11-01T22:23:19.802Z,100.00
2022-11-01T22:25:46.427Z,100.00
2022-11-01T22:28:13.096Z,100.00
2022-11-01T22:30:42.706Z,100.00
2022-11-01T22:33:11.083Z,100.00
2022-11-01T22:35:37.804Z,100.00
2022-11-01T22:38:20.698Z,100.00
2022-11-01T22:41:01.387Z,100.00
2022-11-01T22:43:30.665Z,100.00
2022-11-01T22:45:57.446Z,100.00
2022-11-01T22:48:25.192Z,100.00
2022-11-01T22:50:51.811Z,100.00
2022-11-01T22:53:25.636Z,100.00
2022-11-01T22:55:55.444Z,100.00
2022-11-01T22:58:37.602Z,100.00
2022-11-01T23:01:25.915Z,100.00
2022-11-01T23:03:59.004Z,100.00
2022-11-01T23:06:33.281Z,100.00
2022-11-01T23:09:25.950Z,100.00
2022-11-01T23:12:14.641Z,100.00
2022-11-01T23:14:45.581Z,100.00
2022-11-01T23:17:35.050Z,100.00
2022-11-01T23:20:03.611Z,100.00
2022-11-01T23:22:36.031Z,100.00
2022-11-01T23:25:05.191Z,100.00
2022-11-01T23:27:32.757Z,100.00
2022-11-01T23:30:02.590Z,100.00
2022-11-01T23:32:31.390Z,100.00
2022-11-01T23:35:24.257Z,100.00
2022-11-01T23:37:53.605Z,100.00
2022-11-01T23:40:22.197Z,100.00
2022-11-01T23:42:49.506Z,100.00
2022-11-01T23:45:33.291Z,100.00
2022-11-01T23:48:01.479Z,100.00
2022-11-01T23:50:37.233Z,100.00
2022-11-01T23:53:13.531Z,100.00
2022-11-01T23:55:48.168Z,100.00
2022-11-01T23:58:35.147Z,100.00
